sensor_id;sensor_type;location;lat;lon;timestamp;temperature;humidity
36442;DHT22;64346;50.820;16.274;2022-12-04T00:01:25;3.30;99.90
36442;DHT22;64346;50.820;16.274;2022-12-04T00:03:53;3.30;99.90
36442;DHT22;64346;50.820;16.274;2022-12-04T00:06:22;3.20;99.90
36442;DHT22;64346;50.820;16.274;2022-12-04T00:08:51;3.20;99.90
36442;DHT22;64346;50.820;16.274;2022-12-04T00:11:22;3.30;99.90
36442;DHT22;64346;50.820;16.274;2022-12-04T00:13:52;3.20;99.90
36442;DHT22;64346;50.820;16.274;2022-12-04T00:16:24;3.20;99.90
36442;DHT22;64346;50.820;16.274;2022-12-04T00:18:53;3.20;99.90
36442;DHT22;64346;50.820;16.274;2022-12-04T00:21:25;3.20;99.90
36442;DHT22;64346;50.820;16.274;2022-12-04T00:23:55;3.30;99.90
36442;DHT22;64346;50.820;16.274;2022-12-04T00:26:26;3.30;99.90
36442;DHT22;64346;50.820;16.274;2022-12-04T00:28:56;3.30;99.90
36442;DHT22;64346;50.820;16.274;2022-12-04T00:31:26;3.30;99.90
36442;DHT22;64346;50.820;16.274;2022-12-04T00:33:55;3.30;99.90
36442;DHT22;64346;50.820;16.274;2022-12-04T00:36:24;3.30;99.90
36442;DHT22;64346;50.820;16.274;2022-12-04T00:38:55;3.20;99.90
36442;DHT22;64346;50.820;16.274;2022-12-04T00:41:26;3.10;99.90
36442;DHT22;64346;50.820;16.274;2022-12-04T00:43:54;3.10;99.90
36442;DHT22;64346;50.820;16.274;2022-12-04T00:46:22;2.90;99.90
36442;DHT22;64346;50.820;16.274;2022-12-04T00:48:52;2.90;99.90
36442;DHT22;64346;50.820;16.274;2022-12-04T00:51:23;2.90;99.90
36442;DHT22;64346;50.820;16.274;2022-12-04T00:53:51;2.80;99.90
36442;DHT22;64346;50.820;16.274;2022-12-04T00:56:25;2.80;99.90
36442;DHT22;64346;50.820;16.274;2022-12-04T00:58:56;2.80;99.90
36442;DHT22;64346;50.820;16.274;2022-12-04T01:01:24;2.80;99.90
36442;DHT22;64346;50.820;16.274;2022-12-04T01:03:53;2.90;99.90
36442;DHT22;64346;50.820;16.274;2022-12-04T01:06:26;2.90;99.90
36442;DHT22;64346;50.820;16.274;2022-12-04T01:08:55;3.00;99.90
36442;DHT22;64346;50.820;16.274;2022-12-04T01:11:24;3.00;99.90
36442;DHT22;64346;50.820;16.274;2022-12-04T01:13:51;3.00;99.90
36442;DHT22;64346;50.820;16.274;2022-12-04T01:16:24;3.00;99.90
36442;DHT22;64346;50.820;16.274;2022-12-04T01:18:52;3.00;99.90
36442;DHT22;64346;50.820;16.274;2022-12-04T01:21:19;3.00;99.90
36442;DHT22;64346;50.820;16.274;2022-12-04T01:23:49;3.00;99.90
36442;DHT22;64346;50.820;16.274;2022-12-04T01:26:19;3.00;99.90
36442;DHT22;64346;50.820;16.274;2022-12-04T01:28:46;3.10;99.90
36442;DHT22;64346;50.820;16.274;2022-12-04T01:31:16;3.00;99.90
36442;DHT22;64346;50.820;16.274;2022-12-04T01:33:45;3.10;99.90
36442;DHT22;64346;50.820;16.274;2022-12-04T01:36:16;3.10;99.90
36442;DHT22;64346;50.820;16.274;2022-12-04T01:38:44;3.10;99.90
36442;DHT22;64346;50.820;16.274;2022-12-04T01:41:19;3.10;99.90
36442;DHT22;64346;50.820;16.274;2022-12-04T01:44:18;3.10;99.90
36442;DHT22;64346;50.820;16.274;2022-12-04T01:46:56;3.20;99.90
36442;DHT22;64346;50.820;16.274;2022-12-04T01:49:33;3.20;99.90
36442;DHT22;64346;50.820;16.274;2022-12-04T01:52:10;3.30;99.90
36442;DHT22;64346;50.820;16.274;2022-12-04T01:54:51;3.30;99.90
36442;DHT22;64346;50.820;16.274;2022-12-04T01:57:22;3.30;99.90
36442;DHT22;64346;50.820;16.274;2022-12-04T01:59:58;3.40;99.90
36442;DHT22;64346;50.820;16.274;2022-12-04T02:02:31;3.40;99.90
36442;DHT22;64346;50.820;16.274;2022-12-04T02:05:04;3.40;99.90
36442;DHT22;64346;50.820;16.274;2022-12-04T02:07:34;3.50;99.90
36442;DHT22;64346;50.820;16.274;2022-12-04T02:10:03;3.50;99.90
36442;DHT22;64346;50.820;16.274;2022-12-04T02:18:02;3.50;99.90
36442;DHT22;64346;50.820;16.274;2022-12-04T02:31:12;3.50;99.90
36442;DHT22;64346;50.820;16.274;2022-12-04T02:33:57;3.50;99.90
36442;DHT22;64346;50.820;16.274;2022-12-04T02:36:29;3.50;99.90
36442;DHT22;64346;50.820;16.274;2022-12-04T02:41:44;3.50;99.90
36442;DHT22;64346;50.820;16.274;2022-12-04T02:44:13;3.60;99.90
36442;DHT22;64346;50.820;16.274;2022-12-04T02:46:42;3.70;99.90
36442;DHT22;64346;50.820;16.274;2022-12-04T02:49:15;3.70;99.90
36442;DHT22;64346;50.820;16.274;2022-12-04T02:51:43;3.80;99.90
36442;DHT22;64346;50.820;16.274;2022-12-04T02:54:17;3.80;99.90
36442;DHT22;64346;50.820;16.274;2022-12-04T02:56:48;3.80;99.90
36442;DHT22;64346;50.820;16.274;2022-12-04T02:59:18;3.80;99.90
36442;DHT22;64346;50.820;16.274;2022-12-04T03:01:49;3.90;99.90
36442;DHT22;64346;50.820;16.274;2022-12-04T03:04:24;3.90;99.90
36442;DHT22;64346;50.820;16.274;2022-12-04T03:06:55;3.90;99.90
36442;DHT22;64346;50.820;16.274;2022-12-04T03:09:42;4.00;99.90
36442;DHT22;64346;50.820;16.274;2022-12-04T03:12:20;4.00;99.90
36442;DHT22;64346;50.820;16.274;2022-12-04T03:14:53;4.00;99.90
36442;DHT22;64346;50.820;16.274;2022-12-04T03:17:30;3.90;99.90
36442;DHT22;64346;50.820;16.274;2022-12-04T03:19:59;3.90;99.90
36442;DHT22;64346;50.820;16.274;2022-12-04T03:22:28;3.90;99.90
36442;DHT22;64346;50.820;16.274;2022-12-04T03:24:57;3.90;99.90
36442;DHT22;64346;50.820;16.274;2022-12-04T03:27:28;4.00;99.90
36442;DHT22;64346;50.820;16.274;2022-12-04T03:30:03;4.00;99.90
36442;DHT22;64346;50.820;16.274;2022-12-04T03:40:43;4.00;99.90
36442;DHT22;64346;50.820;16.274;2022-12-04T03:45:49;4.10;99.90
36442;DHT22;64346;50.820;16.274;2022-12-04T03:48:21;4.00;99.90
36442;DHT22;64346;50.820;16.274;2022-12-04T03:50:59;4.10;99.90
36442;DHT22;64346;50.820;16.274;2022-12-04T03:53:32;4.10;99.90
36442;DHT22;64346;50.820;16.274;2022-12-04T03:58:33;4.10;99.90
36442;DHT22;64346;50.820;16.274;2022-12-04T04:01:01;4.10;99.90
36442;DHT22;64346;50.820;16.274;2022-12-04T04:03:34;4.10;99.90
36442;DHT22;64346;50.820;16.274;2022-12-04T04:06:07;4.10;99.90
36442;DHT22;64346;50.820;16.274;2022-12-04T04:08:36;4.10;99.90
36442;DHT22;64346;50.820;16.274;2022-12-04T04:13:52;4.10;99.90
36442;DHT22;64346;50.820;16.274;2022-12-04T04:16:21;4.20;99.90
36442;DHT22;64346;50.820;16.274;2022-12-04T04:18:51;4.20;99.90
36442;DHT22;64346;50.820;16.274;2022-12-04T04:21:21;4.10;99.90
36442;DHT22;64346;50.820;16.274;2022-12-04T04:23:50;4.20;99.90
36442;DHT22;64346;50.820;16.274;2022-12-04T04:26:17;4.20;99.90
36442;DHT22;64346;50.820;16.274;2022-12-04T04:28:44;4.10;99.90
36442;DHT22;64346;50.820;16.274;2022-12-04T04:34:20;4.10;99.90
36442;DHT22;64346;50.820;16.274;2022-12-04T04:36:40;4.10;99.90
36442;DHT22;64346;50.820;16.274;2022-12-04T04:39:17;4.10;99.90
36442;DHT22;64346;50.820;16.274;2022-12-04T04:41:48;4.10;99.90
36442;DHT22;64346;50.820;16.274;2022-12-04T04:44:18;4.10;99.90
36442;DHT22;64346;50.820;16.274;2022-12-04T04:46:49;4.10;99.90
36442;DHT22;64346;50.820;16.274;2022-12-04T04:49:18;4.20;99.90
36442;DHT22;64346;50.820;16.274;2022-12-04T04:51:50;4.20;99.90
36442;DHT22;64346;50.820;16.274;2022-12-04T04:54:18;4.30;99.90
36442;DHT22;64346;50.820;16.274;2022-12-04T04:56:46;4.30;99.90
36442;DHT22;64346;50.820;16.274;2022-12-04T04:59:14;4.30;99.90
36442;DHT22;64346;50.820;16.274;2022-12-04T05:01:44;4.30;99.90
36442;DHT22;64346;50.820;16.274;2022-12-04T05:04:11;4.30;99.90
36442;DHT22;64346;50.820;16.274;2022-12-04T05:06:38;4.20;99.90
36442;DHT22;64346;50.820;16.274;2022-12-04T05:09:08;4.30;99.90
36442;DHT22;64346;50.820;16.274;2022-12-04T05:11:35;4.30;99.90
36442;DHT22;64346;50.820;16.274;2022-12-04T05:14:02;4.30;99.90
36442;DHT22;64346;50.820;16.274;2022-12-04T05:16:32;4.30;99.90
36442;DHT22;64346;50.820;16.274;2022-12-04T05:18:59;4.30;99.90
36442;DHT22;64346;50.820;16.274;2022-12-04T05:21:26;4.30;99.90
36442;DHT22;64346;50.820;16.274;2022-12-04T05:23:53;4.30;99.90
36442;DHT22;64346;50.820;16.274;2022-12-04T05:26:20;4.20;99.90
36442;DHT22;64346;50.820;16.274;2022-12-04T05:28:50;4.20;99.90
36442;DHT22;64346;50.820;16.274;2022-12-04T05:31:17;4.20;99.90
36442;DHT22;64346;50.820;16.274;2022-12-04T05:33:44;4.20;99.90
36442;DHT22;64346;50.820;16.274;2022-12-04T05:36:14;4.20;99.90
36442;DHT22;64346;50.820;16.274;2022-12-04T05:38:41;4.20;99.90
36442;DHT22;64346;50.820;16.274;2022-12-04T05:41:08;4.20;99.90
36442;DHT22;64346;50.820;16.274;2022-12-04T05:43:35;4.10;99.90
36442;DHT22;64346;50.820;16.274;2022-12-04T05:46:03;4.20;99.90
36442;DHT22;64346;50.820;16.274;2022-12-04T05:48:31;4.20;99.90
36442;DHT22;64346;50.820;16.274;2022-12-04T05:50:58;4.20;99.90
36442;DHT22;64346;50.820;16.274;2022-12-04T05:53:25;4.20;99.90
36442;DHT22;64346;50.820;16.274;2022-12-04T05:55:53;4.20;99.90
36442;DHT22;64346;50.820;16.274;2022-12-04T05:58:21;4.30;99.90
36442;DHT22;64346;50.820;16.274;2022-12-04T06:00:48;4.30;99.90
36442;DHT22;64346;50.820;16.274;2022-12-04T06:03:15;4.30;99.90
36442;DHT22;64346;50.820;16.274;2022-12-04T06:05:42;4.30;99.90
36442;DHT22;64346;50.820;16.274;2022-12-04T06:08:09;4.30;99.90
36442;DHT22;64346;50.820;16.274;2022-12-04T06:10:36;4.30;99.90
36442;DHT22;64346;50.820;16.274;2022-12-04T06:13:04;4.30;99.90
36442;DHT22;64346;50.820;16.274;2022-12-04T06:15:35;4.30;99.90
36442;DHT22;64346;50.820;16.274;2022-12-04T06:18:02;4.30;99.90
36442;DHT22;64346;50.820;16.274;2022-12-04T06:20:30;4.30;99.90
36442;DHT22;64346;50.820;16.274;2022-12-04T06:22:57;4.30;99.90
36442;DHT22;64346;50.820;16.274;2022-12-04T06:25:24;4.30;99.90
36442;DHT22;64346;50.820;16.274;2022-12-04T06:27:52;4.40;99.90
36442;DHT22;64346;50.820;16.274;2022-12-04T06:30:18;4.30;99.90
36442;DHT22;64346;50.820;16.274;2022-12-04T06:32:48;4.30;99.90
36442;DHT22;64346;50.820;16.274;2022-12-04T06:35:15;4.30;99.90
36442;DHT22;64346;50.820;16.274;2022-12-04T06:37:42;4.30;99.90
36442;DHT22;64346;50.820;16.274;2022-12-04T06:40:09;4.30;99.90
36442;DHT22;64346;50.820;16.274;2022-12-04T06:42:39;4.20;99.90
36442;DHT22;64346;50.820;16.274;2022-12-04T06:45:06;4.20;99.90
36442;DHT22;64346;50.820;16.274;2022-12-04T06:47:34;4.20;99.90
36442;DHT22;64346;50.820;16.274;2022-12-04T06:50:02;4.20;99.90
36442;DHT22;64346;50.820;16.274;2022-12-04T06:52:31;4.20;99.90
36442;DHT22;64346;50.820;16.274;2022-12-04T06:54:58;4.20;99.90
36442;DHT22;64346;50.820;16.274;2022-12-04T06:57:25;4.30;99.90
36442;DHT22;64346;50.820;16.274;2022-12-04T06:59:55;4.50;99.90
36442;DHT22;64346;50.820;16.274;2022-12-04T07:02:25;4.60;99.90
36442;DHT22;64346;50.820;16.274;2022-12-04T07:04:55;4.70;99.90
36442;DHT22;64346;50.820;16.274;2022-12-04T07:07:25;4.80;99.90
36442;DHT22;64346;50.820;16.274;2022-12-04T07:09:54;5.00;99.90
36442;DHT22;64346;50.820;16.274;2022-12-04T07:12:22;5.10;99.90
36442;DHT22;64346;50.820;16.274;2022-12-04T07:14:49;5.30;99.90
36442;DHT22;64346;50.820;16.274;2022-12-04T07:17:16;5.60;99.90
36442;DHT22;64346;50.820;16.274;2022-12-04T07:19:43;6.00;99.90
36442;DHT22;64346;50.820;16.274;2022-12-04T07:22:11;6.40;99.90
36442;DHT22;64346;50.820;16.274;2022-12-04T07:24:38;6.90;99.90
36442;DHT22;64346;50.820;16.274;2022-12-04T07:27:05;7.30;99.90
36442;DHT22;64346;50.820;16.274;2022-12-04T07:29:32;7.70;99.90
36442;DHT22;64346;50.820;16.274;2022-12-04T07:31:59;8.10;99.90
36442;DHT22;64346;50.820;16.274;2022-12-04T07:34:27;8.60;99.90
36442;DHT22;64346;50.820;16.274;2022-12-04T07:36:55;9.00;99.90
36442;DHT22;64346;50.820;16.274;2022-12-04T07:39:22;9.40;99.90
36442;DHT22;64346;50.820;16.274;2022-12-04T07:41:52;9.90;99.90
36442;DHT22;64346;50.820;16.274;2022-12-04T07:44:21;10.20;99.90
36442;DHT22;64346;50.820;16.274;2022-12-04T07:46:48;10.50;99.90
36442;DHT22;64346;50.820;16.274;2022-12-04T07:49:15;10.70;99.90
36442;DHT22;64346;50.820;16.274;2022-12-04T07:51:42;10.80;99.90
36442;DHT22;64346;50.820;16.274;2022-12-04T07:54:09;11.10;99.90
36442;DHT22;64346;50.820;16.274;2022-12-04T07:56:37;11.20;99.90
36442;DHT22;64346;50.820;16.274;2022-12-04T07:59:04;11.30;99.90
36442;DHT22;64346;50.820;16.274;2022-12-04T08:01:31;11.50;99.90
36442;DHT22;64346;50.820;16.274;2022-12-04T08:03:59;11.60;99.90
36442;DHT22;64346;50.820;16.274;2022-12-04T08:06:29;11.70;99.90
36442;DHT22;64346;50.820;16.274;2022-12-04T08:08:58;11.70;99.90
36442;DHT22;64346;50.820;16.274;2022-12-04T08:11:31;11.70;99.90
36442;DHT22;64346;50.820;16.274;2022-12-04T08:14:01;11.70;99.90
36442;DHT22;64346;50.820;16.274;2022-12-04T08:16:31;11.80;99.90
36442;DHT22;64346;50.820;16.274;2022-12-04T08:18:58;12.20;99.90
36442;DHT22;64346;50.820;16.274;2022-12-04T08:21:27;12.60;99.90
36442;DHT22;64346;50.820;16.274;2022-12-04T08:23:54;13.00;99.90
36442;DHT22;64346;50.820;16.274;2022-12-04T08:26:23;13.40;99.90
36442;DHT22;64346;50.820;16.274;2022-12-04T08:28:54;14.00;99.90
36442;DHT22;64346;50.820;16.274;2022-12-04T08:31:23;14.40;99.90
36442;DHT22;64346;50.820;16.274;2022-12-04T08:33:54;14.60;99.90
36442;DHT22;64346;50.820;16.274;2022-12-04T08:36:22;14.60;99.40
36442;DHT22;64346;50.820;16.274;2022-12-04T08:38:49;14.20;99.20
36442;DHT22;64346;50.820;16.274;2022-12-04T08:41:17;13.90;99.60
36442;DHT22;64346;50.820;16.274;2022-12-04T08:43:44;13.90;99.90
36442;DHT22;64346;50.820;16.274;2022-12-04T08:46:12;13.80;99.90
36442;DHT22;64346;50.820;16.274;2022-12-04T08:48:40;13.90;99.80
36442;DHT22;64346;50.820;16.274;2022-12-04T08:51:11;14.00;99.70
36442;DHT22;64346;50.820;16.274;2022-12-04T08:53:39;14.30;99.40
36442;DHT22;64346;50.820;16.274;2022-12-04T08:56:06;14.70;98.90
36442;DHT22;64346;50.820;16.274;2022-12-04T08:58:33;15.30;97.80
36442;DHT22;64346;50.820;16.274;2022-12-04T09:01:04;15.90;96.60
36442;DHT22;64346;50.820;16.274;2022-12-04T09:03:32;16.20;95.70
36442;DHT22;64346;50.820;16.274;2022-12-04T09:06:02;15.80;95.10
36442;DHT22;64346;50.820;16.274;2022-12-04T09:08:29;15.50;95.80
36442;DHT22;64346;50.820;16.274;2022-12-04T09:11:04;15.50;95.70
36442;DHT22;64346;50.820;16.274;2022-12-04T09:13:31;15.80;95.60
36442;DHT22;64346;50.820;16.274;2022-12-04T09:16:01;16.50;94.30
36442;DHT22;64346;50.820;16.274;2022-12-04T09:18:29;16.60;93.60
36442;DHT22;64346;50.820;16.274;2022-12-04T09:20:57;16.30;93.70
36442;DHT22;64346;50.820;16.274;2022-12-04T09:23:24;16.10;94.50
36442;DHT22;64346;50.820;16.274;2022-12-04T09:25:52;16.60;93.50
36442;DHT22;64346;50.820;16.274;2022-12-04T09:28:19;18.20;91.60
36442;DHT22;64346;50.820;16.274;2022-12-04T09:30:56;19.80;86.50
36442;DHT22;64346;50.820;16.274;2022-12-04T09:33:23;20.40;80.90
36442;DHT22;64346;50.820;16.274;2022-12-04T09:35:50;20.10;78.20
36442;DHT22;64346;50.820;16.274;2022-12-04T09:38:18;19.40;79.30
36442;DHT22;64346;50.820;16.274;2022-12-04T09:40:53;19.40;79.80
36442;DHT22;64346;50.820;16.274;2022-12-04T09:43:29;20.50;77.50
36442;DHT22;64346;50.820;16.274;2022-12-04T09:45:59;20.90;74.50
36442;DHT22;64346;50.820;16.274;2022-12-04T09:48:30;21.30;73.70
36442;DHT22;64346;50.820;16.274;2022-12-04T09:50:58;21.60;71.30
36442;DHT22;64346;50.820;16.274;2022-12-04T09:53:35;20.90;71.40
36442;DHT22;64346;50.820;16.274;2022-12-04T09:56:04;19.60;73.70
36442;DHT22;64346;50.820;16.274;2022-12-04T10:01:02;16.70;80.60
36442;DHT22;64346;50.820;16.274;2022-12-04T10:03:30;15.50;84.60
36442;DHT22;64346;50.820;16.274;2022-12-04T10:06:05;14.30;88.30
36442;DHT22;64346;50.820;16.274;2022-12-04T10:08:35;13.60;91.40
36442;DHT22;64346;50.820;16.274;2022-12-04T10:18:40;11.90;98.70
36442;DHT22;64346;50.820;16.274;2022-12-04T10:21:19;11.80;99.80
36442;DHT22;64346;50.820;16.274;2022-12-04T10:23:54;11.70;99.90
36442;DHT22;64346;50.820;16.274;2022-12-04T10:26:33;11.60;99.90
36442;DHT22;64346;50.820;16.274;2022-12-04T10:29:05;11.50;99.90
36442;DHT22;64346;50.820;16.274;2022-12-04T10:31:36;11.50;99.90
36442;DHT22;64346;50.820;16.274;2022-12-04T10:34:15;11.50;99.90
36442;DHT22;64346;50.820;16.274;2022-12-04T10:36:51;11.50;99.90
36442;DHT22;64346;50.820;16.274;2022-12-04T10:44:14;12.10;99.90
36442;DHT22;64346;50.820;16.274;2022-12-04T10:46:41;12.40;99.90
36442;DHT22;64346;50.820;16.274;2022-12-04T10:49:16;13.00;99.90
36442;DHT22;64346;50.820;16.274;2022-12-04T10:51:45;13.80;99.90
36442;DHT22;64346;50.820;16.274;2022-12-04T10:54:20;15.20;98.30
36442;DHT22;64346;50.820;16.274;2022-12-04T10:56:55;17.40;93.70
36442;DHT22;64346;50.820;16.274;2022-12-04T10:59:23;19.70;87.70
36442;DHT22;64346;50.820;16.274;2022-12-04T11:01:50;22.30;75.30
36442;DHT22;64346;50.820;16.274;2022-12-04T11:04:22;24.10;67.60
36442;DHT22;64346;50.820;16.274;2022-12-04T11:06:50;25.70;62.50
36442;DHT22;64346;50.820;16.274;2022-12-04T11:09:25;26.80;58.80
36442;DHT22;64346;50.820;16.274;2022-12-04T11:11:52;27.10;57.10
36442;DHT22;64346;50.820;16.274;2022-12-04T11:14:30;26.00;57.10
36442;DHT22;64346;50.820;16.274;2022-12-04T11:17:04;24.40;58.90
36442;DHT22;64346;50.820;16.274;2022-12-04T11:19:34;22.80;61.40
36442;DHT22;64346;50.820;16.274;2022-12-04T11:22:10;21.30;63.90
36442;DHT22;64346;50.820;16.274;2022-12-04T11:24:37;20.10;66.40
36442;DHT22;64346;50.820;16.274;2022-12-04T11:27:06;19.00;69.00
36442;DHT22;64346;50.820;16.274;2022-12-04T11:29:42;18.10;70.90
36442;DHT22;64346;50.820;16.274;2022-12-04T11:32:16;17.20;73.70
36442;DHT22;64346;50.820;16.274;2022-12-04T11:34:45;15.90;76.40
36442;DHT22;64346;50.820;16.274;2022-12-04T11:37:17;14.30;82.50
36442;DHT22;64346;50.820;16.274;2022-12-04T11:39:47;13.30;89.00
36442;DHT22;64346;50.820;16.274;2022-12-04T11:42:21;12.60;93.50
36442;DHT22;64346;50.820;16.274;2022-12-04T11:44:52;12.10;97.00
36442;DHT22;64346;50.820;16.274;2022-12-04T11:47:20;11.70;99.30
36442;DHT22;64346;50.820;16.274;2022-12-04T11:55:02;10.90;99.90
36442;DHT22;64346;50.820;16.274;2022-12-04T11:57:38;10.60;99.90
36442;DHT22;64346;50.820;16.274;2022-12-04T12:23:21;10.10;99.90
36442;DHT22;64346;50.820;16.274;2022-12-04T12:36:17;10.30;99.90
36442;DHT22;64346;50.820;16.274;2022-12-04T12:38:47;10.30;99.90
36442;DHT22;64346;50.820;16.274;2022-12-04T12:41:20;10.30;99.90
36442;DHT22;64346;50.820;16.274;2022-12-04T12:43:52;10.30;99.90
36442;DHT22;64346;50.820;16.274;2022-12-04T12:48:50;10.20;99.90
36442;DHT22;64346;50.820;16.274;2022-12-04T12:56:51;10.00;99.90
36442;DHT22;64346;50.820;16.274;2022-12-04T12:59:20;10.00;99.90
36442;DHT22;64346;50.820;16.274;2022-12-04T13:04:27;9.80;99.90
36442;DHT22;64346;50.820;16.274;2022-12-04T13:07:02;9.70;99.90
36442;DHT22;64346;50.820;16.274;2022-12-04T13:09:32;9.60;99.90
36442;DHT22;64346;50.820;16.274;2022-12-04T13:12:02;9.60;99.90
36442;DHT22;64346;50.820;16.274;2022-12-04T13:14:31;9.50;99.90
36442;DHT22;64346;50.820;16.274;2022-12-04T13:17:07;9.50;99.90
36442;DHT22;64346;50.820;16.274;2022-12-04T13:19:44;9.50;99.90
36442;DHT22;64346;50.820;16.274;2022-12-04T13:29:59;9.30;99.90
36442;DHT22;64346;50.820;16.274;2022-12-04T13:35:03;9.30;99.90
36442;DHT22;64346;50.820;16.274;2022-12-04T13:42:43;9.20;99.90
36442;DHT22;64346;50.820;16.274;2022-12-04T13:45:11;9.20;99.90
36442;DHT22;64346;50.820;16.274;2022-12-04T13:47:56;9.20;99.90
36442;DHT22;64346;50.820;16.274;2022-12-04T13:50:25;9.10;99.90
36442;DHT22;64346;50.820;16.274;2022-12-04T13:52:53;9.00;99.90
36442;DHT22;64346;50.820;16.274;2022-12-04T14:00:43;8.80;99.90
36442;DHT22;64346;50.820;16.274;2022-12-04T14:03:23;8.60;99.90
36442;DHT22;64346;50.820;16.274;2022-12-04T14:05:51;8.50;99.90
36442;DHT22;64346;50.820;16.274;2022-12-04T14:10:55;8.40;99.90
36442;DHT22;64346;50.820;16.274;2022-12-04T14:13:26;8.40;99.90
36442;DHT22;64346;50.820;16.274;2022-12-04T14:16:04;8.30;99.90
36442;DHT22;64346;50.820;16.274;2022-12-04T14:18:33;8.30;99.90
36442;DHT22;64346;50.820;16.274;2022-12-04T14:21:04;8.30;99.90
36442;DHT22;64346;50.820;16.274;2022-12-04T14:23:35;8.30;99.90
36442;DHT22;64346;50.820;16.274;2022-12-04T14:26:03;8.30;99.90
36442;DHT22;64346;50.820;16.274;2022-12-04T14:33:31;8.10;99.90
36442;DHT22;64346;50.820;16.274;2022-12-04T14:36:14;8.10;99.90
36442;DHT22;64346;50.820;16.274;2022-12-04T14:38:43;8.10;99.90
36442;DHT22;64346;50.820;16.274;2022-12-04T14:41:11;8.10;99.90
36442;DHT22;64346;50.820;16.274;2022-12-04T16:27:12;5.90;99.90
36442;DHT22;64346;50.820;16.274;2022-12-04T16:29:43;5.90;99.90
36442;DHT22;64346;50.820;16.274;2022-12-04T16:32:11;5.90;99.90
36442;DHT22;64346;50.820;16.274;2022-12-04T16:34:40;5.80;99.90
36442;DHT22;64346;50.820;16.274;2022-12-04T16:37:17;5.70;99.90
36442;DHT22;64346;50.820;16.274;2022-12-04T16:39:45;5.70;99.90
36442;DHT22;64346;50.820;16.274;2022-12-04T16:44:44;5.60;99.90
36442;DHT22;64346;50.820;16.274;2022-12-04T16:47:12;5.60;99.90
36442;DHT22;64346;50.820;16.274;2022-12-04T16:49:40;5.60;99.90
36442;DHT22;64346;50.820;16.274;2022-12-04T16:52:10;5.50;99.90
36442;DHT22;64346;50.820;16.274;2022-12-04T16:54:42;5.50;99.90
36442;DHT22;64346;50.820;16.274;2022-12-04T16:57:11;5.40;99.90
36442;DHT22;64346;50.820;16.274;2022-12-04T16:59:39;5.50;99.90
36442;DHT22;64346;50.820;16.274;2022-12-04T17:02:14;5.40;99.90
36442;DHT22;64346;50.820;16.274;2022-12-04T17:04:46;5.50;99.90
36442;DHT22;64346;50.820;16.274;2022-12-04T17:07:18;5.50;99.90
36442;DHT22;64346;50.820;16.274;2022-12-04T17:09:46;5.60;99.90
36442;DHT22;64346;50.820;16.274;2022-12-04T17:12:13;5.50;99.90
36442;DHT22;64346;50.820;16.274;2022-12-04T17:14:40;5.50;99.90
36442;DHT22;64346;50.820;16.274;2022-12-04T17:17:08;5.50;99.90
36442;DHT22;64346;50.820;16.274;2022-12-04T17:19:35;5.50;99.90
36442;DHT22;64346;50.820;16.274;2022-12-04T17:22:03;5.40;99.90
36442;DHT22;64346;50.820;16.274;2022-12-04T17:24:30;5.40;99.90
36442;DHT22;64346;50.820;16.274;2022-12-04T17:26:57;5.40;99.90
36442;DHT22;64346;50.820;16.274;2022-12-04T17:29:25;5.30;99.90
36442;DHT22;64346;50.820;16.274;2022-12-04T17:31:52;5.40;99.90
36442;DHT22;64346;50.820;16.274;2022-12-04T17:34:19;5.40;99.90
36442;DHT22;64346;50.820;16.274;2022-12-04T17:36:46;5.40;99.90
36442;DHT22;64346;50.820;16.274;2022-12-04T17:39:14;5.40;99.90
36442;DHT22;64346;50.820;16.274;2022-12-04T17:41:43;5.40;99.90
36442;DHT22;64346;50.820;16.274;2022-12-04T17:44:11;5.50;99.90
36442;DHT22;64346;50.820;16.274;2022-12-04T17:46:38;5.50;99.90
36442;DHT22;64346;50.820;16.274;2022-12-04T17:49:08;5.50;99.90
36442;DHT22;64346;50.820;16.274;2022-12-04T17:51:35;5.60;99.90
36442;DHT22;64346;50.820;16.274;2022-12-04T17:54:03;5.60;99.90
36442;DHT22;64346;50.820;16.274;2022-12-04T17:56:35;5.60;99.90
36442;DHT22;64346;50.820;16.274;2022-12-04T17:59:03;5.60;99.90
36442;DHT22;64346;50.820;16.274;2022-12-04T18:01:31;5.70;99.90
36442;DHT22;64346;50.820;16.274;2022-12-04T18:04:02;5.80;99.90
36442;DHT22;64346;50.820;16.274;2022-12-04T18:06:32;5.90;99.90
36442;DHT22;64346;50.820;16.274;2022-12-04T18:09:00;6.00;99.90
36442;DHT22;64346;50.820;16.274;2022-12-04T18:11:30;6.00;99.90
36442;DHT22;64346;50.820;16.274;2022-12-04T18:14:04;6.10;99.90
36442;DHT22;64346;50.820;16.274;2022-12-04T18:16:40;6.20;99.90
36442;DHT22;64346;50.820;16.274;2022-12-04T18:19:11;6.30;99.90
36442;DHT22;64346;50.820;16.274;2022-12-04T18:21:39;6.50;99.90
36442;DHT22;64346;50.820;16.274;2022-12-04T18:24:06;6.60;99.90
36442;DHT22;64346;50.820;16.274;2022-12-04T18:26:39;6.60;99.90
36442;DHT22;64346;50.820;16.274;2022-12-04T18:29:08;6.60;99.90
36442;DHT22;64346;50.820;16.274;2022-12-04T18:31:36;6.60;99.90
36442;DHT22;64346;50.820;16.274;2022-12-04T18:34:07;6.60;99.90
36442;DHT22;64346;50.820;16.274;2022-12-04T18:36:35;6.60;99.90
36442;DHT22;64346;50.820;16.274;2022-12-04T18:39:09;6.50;99.90
36442;DHT22;64346;50.820;16.274;2022-12-04T18:41:39;6.50;99.90
36442;DHT22;64346;50.820;16.274;2022-12-04T18:44:10;6.50;99.90
36442;DHT22;64346;50.820;16.274;2022-12-04T18:46:40;6.50;99.90
36442;DHT22;64346;50.820;16.274;2022-12-04T18:49:11;6.50;99.90
36442;DHT22;64346;50.820;16.274;2022-12-04T18:51:43;6.50;99.90
36442;DHT22;64346;50.820;16.274;2022-12-04T18:54:22;6.50;99.90
36442;DHT22;64346;50.820;16.274;2022-12-04T18:56:52;6.60;99.90
36442;DHT22;64346;50.820;16.274;2022-12-04T18:59:22;6.60;99.90
36442;DHT22;64346;50.820;16.274;2022-12-04T19:01:52;6.60;99.90
36442;DHT22;64346;50.820;16.274;2022-12-04T19:04:22;6.70;99.90
36442;DHT22;64346;50.820;16.274;2022-12-04T19:06:52;6.70;99.90
36442;DHT22;64346;50.820;16.274;2022-12-04T19:09:25;6.70;99.90
36442;DHT22;64346;50.820;16.274;2022-12-04T19:12:16;6.70;99.90
36442;DHT22;64346;50.820;16.274;2022-12-04T19:14:43;6.80;99.90
36442;DHT22;64346;50.820;16.274;2022-12-04T19:17:10;6.90;99.90
36442;DHT22;64346;50.820;16.274;2022-12-04T19:19:38;6.90;99.90
36442;DHT22;64346;50.820;16.274;2022-12-04T19:22:07;7.00;99.90
36442;DHT22;64346;50.820;16.274;2022-12-04T19:24:34;7.00;99.90
36442;DHT22;64346;50.820;16.274;2022-12-04T19:27:02;7.10;99.90
36442;DHT22;64346;50.820;16.274;2022-12-04T19:29:29;7.10;99.90
36442;DHT22;64346;50.820;16.274;2022-12-04T19:31:59;7.10;99.90
36442;DHT22;64346;50.820;16.274;2022-12-04T19:34:27;7.10;99.90
36442;DHT22;64346;50.820;16.274;2022-12-04T19:36:54;7.20;99.90
36442;DHT22;64346;50.820;16.274;2022-12-04T19:39:21;7.10;99.90
36442;DHT22;64346;50.820;16.274;2022-12-04T19:41:48;7.10;99.90